PWSweather.com
Personal Weather Stations
Station Observations
N3SME
Betz Creek, Wilmington Island, Savannah, GA 31410

Betz Creek, Wilmington IslandSavannah, GA 31410

Lat: 32.023021, Lon: -80.959452

Elevation: 15

Station Type: Ambient

High Low Average
Temperature 89.0°F31.7°F 70.1°F21.2°F 79.3°F26.3°F
Dew Point 70.9°F21.6°F 61.4°F16.3°F 66.3°F19.1°F
Winds 6.9 mph SE11.1 mph SE Calm Calm 1.6 mph 2.6 mph
Wind Gusts 24.6 mph39.6 mph 1.8 mph2.9 mph 10.4 mph16.7 mph
Humidity 88% 43% 68%
Pressure 29.99 in1015.60 in 29.91 in1012.90 in -
Precipitation 0.00 in0.00 in - -
Hour Temp Dew Point Humidity Winds Wind Gusts Pressure Precip Precip Rate Daily Precip Total
12:07 AM 77.1°F25.1°C 70.7°F21.5°C 81% 1.8 mph E2.9 kmh E 10.5 mph16.9 kmh 29.95 in1014.2 mb 0.00 in0.0 mm 0.00 in/hr0.0 mm/hr 0.00 in0.0 mm
12:22 AM 76.9°F24.9°C 70.5°F21.4°C 81% Calm Calm 8.7 mph14.0 kmh 29.96 in1014.6 mb 0.00 in0.0 mm 0.00 in/hr0.0 mm/hr 0.00 in0.0 mm
12:37 AM 76.7°F24.8°C 70.7°F21.5°C 82% Calm Calm 5.1 mph8.2 kmh 29.96 in1014.6 mb 0.00 in0.0 mm 0.00 in/hr0.0 mm/hr 0.00 in0.0 mm
12:52 AM 76.4°F24.7°C 70.7°F21.5°C 83% Calm Calm 6.9 mph11.1 kmh 29.96 in1014.6 mb 0.00 in0.0 mm 0.00 in/hr0.0 mm/hr 0.00 in0.0 mm
01:07 AM 76.2°F24.6°C 70.9°F21.6°C 84% 1.8 mph E2.9 kmh E 8.7 mph14.0 kmh 29.95 in1014.2 mb 0.00 in0.0 mm 0.00 in/hr0.0 mm/hr 0.00 in0.0 mm
01:22 AM 76.0°F24.4°C 70.7°F21.5°C 84% Calm Calm 6.9 mph11.1 kmh 29.95 in1014.2 mb 0.00 in0.0 mm 0.00 in/hr0.0 mm/hr 0.00 in0.0 mm
01:37 AM 75.6°F24.2°C 70.4°F21.3°C 84% Calm Calm 3.6 mph5.8 kmh 29.95 in1014.2 mb 0.00 in0.0 mm 0.00 in/hr0.0 mm/hr 0.00 in0.0 mm
01:52 AM 75.3°F24.1°C 70.0°F21.1°C 84% Calm Calm 6.9 mph11.1 kmh 29.95 in1014.2 mb 0.00 in0.0 mm 0.00 in/hr0.0 mm/hr 0.00 in0.0 mm
02:07 AM 75.1°F23.9°C 69.9°F21.1°C 84% 1.8 mph ENE2.9 kmh ENE 6.9 mph11.1 kmh 29.95 in1014.2 mb 0.00 in0.0 mm 0.00 in/hr0.0 mm/hr 0.00 in0.0 mm
02:22 AM 74.9°F23.8°C 69.0°F20.6°C 82% Calm Calm 8.7 mph14.0 kmh 29.94 in1013.9 mb 0.00 in0.0 mm 0.00 in/hr0.0 mm/hr 0.00 in0.0 mm
02:37 AM 74.4°F23.6°C 68.4°F20.2°C 82% Calm Calm 5.1 mph8.2 kmh 29.93 in1013.5 mb 0.00 in0.0 mm 0.00 in/hr0.0 mm/hr 0.00 in0.0 mm
02:52 AM 74.2°F23.4°C 68.6°F20.3°C 83% Calm Calm 5.1 mph8.2 kmh 29.93 in1013.5 mb 0.00 in0.0 mm 0.00 in/hr0.0 mm/hr 0.00 in0.0 mm
03:07 AM 74.0°F23.3°C 68.8°F20.4°C 84% Calm Calm 8.7 mph14.0 kmh 29.93 in1013.5 mb 0.00 in0.0 mm 0.00 in/hr0.0 mm/hr 0.00 in0.0 mm
03:22 AM 73.7°F23.2°C 68.8°F20.4°C 85% Calm Calm 6.9 mph11.1 kmh 29.93 in1013.5 mb 0.00 in0.0 mm 0.00 in/hr0.0 mm/hr 0.00 in0.0 mm
03:37 AM 73.3°F22.9°C 68.4°F20.2°C 85% Calm Calm 6.9 mph11.1 kmh 29.93 in1013.5 mb 0.00 in0.0 mm 0.00 in/hr0.0 mm/hr 0.00 in0.0 mm
03:52 AM 72.9°F22.7°C 68.1°F20.1°C 85% Calm Calm 8.7 mph14.0 kmh 29.92 in1013.2 mb 0.00 in0.0 mm 0.00 in/hr0.0 mm/hr 0.00 in0.0 mm
04:07 AM 72.8°F22.7°C 67.9°F19.9°C 85% Calm Calm 6.9 mph11.1 kmh 29.92 in1013.2 mb 0.00 in0.0 mm 0.00 in/hr0.0 mm/hr 0.00 in0.0 mm
04:22 AM 72.4°F22.4°C 67.6°F19.8°C 85% Calm Calm 5.1 mph8.2 kmh 29.92 in1013.2 mb 0.00 in0.0 mm 0.00 in/hr0.0 mm/hr 0.00 in0.0 mm
04:37 AM 72.2°F22.3°C 67.7°F19.8°C 86% Calm Calm 5.1 mph8.2 kmh 29.92 in1013.2 mb 0.00 in0.0 mm 0.00 in/hr0.0 mm/hr 0.00 in0.0 mm
04:52 AM 71.9°F22.2°C 67.7°F19.8°C 87% Calm Calm 10.5 mph16.9 kmh 29.92 in1013.2 mb 0.00 in0.0 mm 0.00 in/hr0.0 mm/hr 0.00 in0.0 mm
05:07 AM 71.9°F22.2°C 67.7°F19.8°C 87% 3.6 mph E5.8 kmh E 8.7 mph14.0 kmh 29.92 in1013.2 mb 0.00 in0.0 mm 0.00 in/hr0.0 mm/hr 0.00 in0.0 mm
05:22 AM 71.9°F22.2°C 67.7°F19.8°C 87% 1.8 mph N2.9 kmh N 10.5 mph16.9 kmh 29.92 in1013.2 mb 0.00 in0.0 mm 0.00 in/hr0.0 mm/hr 0.00 in0.0 mm
05:37 AM 71.5°F21.9°C 67.7°F19.8°C 88% Calm Calm 8.7 mph14.0 kmh 29.92 in1013.2 mb 0.00 in0.0 mm 0.00 in/hr0.0 mm/hr 0.00 in0.0 mm
05:52 AM 71.1°F21.7°C 67.4°F19.7°C 88% Calm Calm 6.9 mph11.1 kmh 29.93 in1013.5 mb 0.00 in0.0 mm 0.00 in/hr0.0 mm/hr 0.00 in0.0 mm
06:07 AM 71.0°F21.7°C 67.2°F19.6°C 88% Calm Calm 5.1 mph8.2 kmh 29.94 in1013.9 mb 0.00 in0.0 mm 0.00 in/hr0.0 mm/hr 0.00 in0.0 mm
06:22 AM 70.8°F21.6°C 67.0°F19.4°C 88% Calm Calm 12.3 mph19.8 kmh 29.94 in1013.9 mb 0.00 in0.0 mm 0.00 in/hr0.0 mm/hr 0.00 in0.0 mm
06:37 AM 70.4°F21.3°C 66.7°F19.3°C 88% Calm Calm 8.7 mph14.0 kmh 29.95 in1014.2 mb 0.00 in0.0 mm 0.00 in/hr0.0 mm/hr 0.00 in0.0 mm
06:52 AM 70.2°F21.2°C 66.5°F19.2°C 88% 1.8 mph NW2.9 kmh NW 8.7 mph14.0 kmh 29.95 in1014.2 mb 0.00 in0.0 mm 0.00 in/hr0.0 mm/hr 0.00 in0.0 mm
07:07 AM 70.1°F21.2°C 66.3°F19.1°C 88% Calm Calm 10.5 mph16.9 kmh 29.96 in1014.6 mb 0.00 in0.0 mm 0.00 in/hr0.0 mm/hr 0.00 in0.0 mm
07:22 AM 70.1°F21.2°C 66.3°F19.1°C 88% 1.8 mph NNW2.9 kmh NNW 8.7 mph14.0 kmh 29.96 in1014.6 mb 0.00 in0.0 mm 0.00 in/hr0.0 mm/hr 0.00 in0.0 mm
07:37 AM 70.2°F21.2°C 66.5°F19.2°C 88% Calm Calm 6.9 mph11.1 kmh 29.96 in1014.6 mb 0.00 in0.0 mm 0.00 in/hr0.0 mm/hr 0.00 in0.0 mm
07:52 AM 70.6°F21.4°C 66.8°F19.3°C 88% Calm Calm 8.7 mph14.0 kmh 29.96 in1014.6 mb 0.00 in0.0 mm 0.00 in/hr0.0 mm/hr 0.00 in0.0 mm
08:07 AM 71.3°F21.8°C 67.5°F19.7°C 88% Calm Calm 12.3 mph19.8 kmh 29.97 in1014.9 mb 0.00 in0.0 mm 0.00 in/hr0.0 mm/hr 0.00 in0.0 mm
08:22 AM 72.4°F22.4°C 67.9°F19.9°C 86% 3.6 mph NE5.8 kmh NE 8.7 mph14.0 kmh 29.97 in1014.9 mb 0.00 in0.0 mm 0.00 in/hr0.0 mm/hr 0.00 in0.0 mm
08:37 AM 73.7°F23.2°C 68.1°F20.1°C 83% 3.6 mph NNE5.8 kmh NNE 12.3 mph19.8 kmh 29.97 in1014.9 mb 0.00 in0.0 mm 0.00 in/hr0.0 mm/hr 0.00 in0.0 mm
08:52 AM 74.7°F23.7°C 68.4°F20.2°C 81% 1.8 mph ENE2.9 kmh ENE 12.3 mph19.8 kmh 29.97 in1014.9 mb 0.00 in0.0 mm 0.00 in/hr0.0 mm/hr 0.00 in0.0 mm
09:07 AM 76.0°F24.4°C 68.9°F20.5°C 79% Calm Calm 12.3 mph19.8 kmh 29.97 in1014.9 mb 0.00 in0.0 mm 0.00 in/hr0.0 mm/hr 0.00 in0.0 mm
09:22 AM 77.3°F25.2°C 69.3°F20.7°C 77% 1.8 mph NE2.9 kmh NE 14.1 mph22.7 kmh 29.98 in1015.2 mb 0.00 in0.0 mm 0.00 in/hr0.0 mm/hr 0.00 in0.0 mm
09:37 AM 78.3°F25.7°C 68.3°F20.2°C 72% 5.1 mph ENE8.2 kmh ENE 14.1 mph22.7 kmh 29.98 in1015.2 mb 0.00 in0.0 mm 0.00 in/hr0.0 mm/hr 0.00 in0.0 mm
09:52 AM 79.1°F26.2°C 67.3°F19.6°C 68% 5.1 mph NNW8.2 kmh NNW 8.7 mph14.0 kmh 29.98 in1015.2 mb 0.00 in0.0 mm 0.00 in/hr0.0 mm/hr 0.00 in0.0 mm
10:07 AM 80.0°F26.7°C 67.2°F19.6°C 66% 3.6 mph NE5.8 kmh NE 19.2 mph30.9 kmh 29.98 in1015.2 mb 0.00 in0.0 mm 0.00 in/hr0.0 mm/hr 0.00 in0.0 mm
10:22 AM 80.7°F27.1°C 66.9°F19.4°C 64% 5.1 mph NNE8.2 kmh NNE 19.2 mph30.9 kmh 29.97 in1014.9 mb 0.00 in0.0 mm 0.00 in/hr0.0 mm/hr 0.00 in0.0 mm
10:37 AM 81.8°F27.7°C 66.5°F19.2°C 61% Calm Calm 17.4 mph28.0 kmh 29.98 in1015.2 mb 0.00 in0.0 mm 0.00 in/hr0.0 mm/hr 0.00 in0.0 mm
10:52 AM 82.5°F28.1°C 65.6°F18.7°C 58% 1.8 mph NE2.9 kmh NE 19.2 mph30.9 kmh 29.99 in1015.6 mb 0.00 in0.0 mm 0.00 in/hr0.0 mm/hr 0.00 in0.0 mm
11:07 AM 83.2°F28.4°C 65.7°F18.7°C 57% 3.6 mph ENE5.8 kmh ENE 22.8 mph36.7 kmh 29.98 in1015.2 mb 0.00 in0.0 mm 0.00 in/hr0.0 mm/hr 0.00 in0.0 mm
11:22 AM 83.2°F28.4°C 64.6°F18.1°C 55% 6.9 mph NE11.1 kmh NE 19.2 mph30.9 kmh 29.98 in1015.2 mb 0.00 in0.0 mm 0.00 in/hr0.0 mm/hr 0.00 in0.0 mm
11:37 AM 84.1°F28.9°C 64.3°F17.9°C 53% 5.1 mph ENE8.2 kmh ENE 22.8 mph36.7 kmh 29.98 in1015.2 mb 0.00 in0.0 mm 0.00 in/hr0.0 mm/hr 0.00 in0.0 mm
11:52 AM 85.0°F29.4°C 64.5°F18.1°C 52% 1.8 mph N2.9 kmh N 14.1 mph22.7 kmh 29.98 in1015.2 mb 0.00 in0.0 mm 0.00 in/hr0.0 mm/hr 0.00 in0.0 mm
12:07 PM 85.5°F29.7°C 63.1°F17.3°C 49% 5.1 mph NNE8.2 kmh NNE 19.2 mph30.9 kmh 29.98 in1015.2 mb 0.00 in0.0 mm 0.00 in/hr0.0 mm/hr 0.00 in0.0 mm
12:22 PM 86.3°F30.2°C 63.8°F17.7°C 49% 5.1 mph NE8.2 kmh NE 17.4 mph28.0 kmh 29.98 in1015.2 mb 0.00 in0.0 mm 0.00 in/hr0.0 mm/hr 0.00 in0.0 mm
12:37 PM 85.9°F29.9°C 63.4°F17.4°C 49% 5.1 mph NE8.2 kmh NE 19.2 mph30.9 kmh 29.97 in1014.9 mb 0.00 in0.0 mm 0.00 in/hr0.0 mm/hr 0.00 in0.0 mm
12:52 PM 86.6°F30.3°C 62.8°F17.1°C 47% 6.9 mph ENE11.1 kmh ENE 17.4 mph28.0 kmh 29.98 in1015.2 mb 0.00 in0.0 mm 0.00 in/hr0.0 mm/hr 0.00 in0.0 mm
01:07 PM 87.2°F30.7°C 64.6°F18.1°C 49% Calm Calm 24.6 mph39.6 kmh 29.97 in1014.9 mb 0.00 in0.0 mm 0.00 in/hr0.0 mm/hr 0.00 in0.0 mm
01:22 PM 88.2°F31.2°C 64.9°F18.3°C 48% 5.1 mph NE8.2 kmh NE 21.0 mph33.8 kmh 29.96 in1014.6 mb 0.00 in0.0 mm 0.00 in/hr0.0 mm/hr 0.00 in0.0 mm
01:37 PM 88.6°F31.4°C 63.2°F17.3°C 45% 5.1 mph NE8.2 kmh NE 19.2 mph30.9 kmh 29.96 in1014.6 mb 0.00 in0.0 mm 0.00 in/hr0.0 mm/hr 0.00 in0.0 mm
01:52 PM 88.4°F31.3°C 62.3°F16.8°C 44% 5.1 mph NE8.2 kmh NE 19.2 mph30.9 kmh 29.96 in1014.6 mb 0.00 in0.0 mm 0.00 in/hr0.0 mm/hr 0.00 in0.0 mm
02:07 PM 87.9°F31.1°C 63.2°F17.3°C 46% 5.1 mph E8.2 kmh E 15.7 mph25.3 kmh 29.96 in1014.6 mb 0.00 in0.0 mm 0.00 in/hr0.0 mm/hr 0.00 in0.0 mm
02:22 PM 88.4°F31.3°C 63.0°F17.2°C 45% 1.8 mph ENE2.9 kmh ENE 12.3 mph19.8 kmh 29.95 in1014.2 mb 0.00 in0.0 mm 0.00 in/hr0.0 mm/hr 0.00 in0.0 mm
02:37 PM 89.0°F31.7°C 62.1°F16.7°C 43% 1.8 mph ENE2.9 kmh ENE 14.1 mph22.7 kmh 29.95 in1014.2 mb 0.00 in0.0 mm 0.00 in/hr0.0 mm/hr 0.00 in0.0 mm
02:52 PM 89.0°F31.7°C 62.8°F17.1°C 44% 3.6 mph ENE5.8 kmh ENE 22.8 mph36.7 kmh 29.94 in1013.9 mb 0.00 in0.0 mm 0.00 in/hr0.0 mm/hr 0.00 in0.0 mm
03:07 PM 88.6°F31.4°C 63.2°F17.3°C 45% Calm Calm 17.4 mph28.0 kmh 29.94 in1013.9 mb 0.00 in0.0 mm 0.00 in/hr0.0 mm/hr 0.00 in0.0 mm
03:22 PM 89.0°F31.7°C 64.9°F18.3°C 47% 3.6 mph ENE5.8 kmh ENE 15.7 mph25.3 kmh 29.93 in1013.5 mb 0.00 in0.0 mm 0.00 in/hr0.0 mm/hr 0.00 in0.0 mm
03:37 PM 89.0°F31.7°C 62.1°F16.7°C 43% 3.6 mph E5.8 kmh E 22.8 mph36.7 kmh 29.93 in1013.5 mb 0.00 in0.0 mm 0.00 in/hr0.0 mm/hr 0.00 in0.0 mm
03:52 PM 89.0°F31.7°C 62.1°F16.7°C 43% 5.1 mph E8.2 kmh E 15.7 mph25.3 kmh 29.93 in1013.5 mb 0.00 in0.0 mm 0.00 in/hr0.0 mm/hr 0.00 in0.0 mm
04:07 PM 88.2°F31.2°C 62.9°F17.2°C 45% 1.8 mph E2.9 kmh E 17.4 mph28.0 kmh 29.92 in1013.2 mb 0.00 in0.0 mm 0.00 in/hr0.0 mm/hr 0.00 in0.0 mm
04:22 PM 88.2°F31.2°C 61.4°F16.3°C 43% 1.8 mph E2.9 kmh E 14.1 mph22.7 kmh 29.92 in1013.2 mb 0.00 in0.0 mm 0.00 in/hr0.0 mm/hr 0.00 in0.0 mm
04:37 PM 88.2°F31.2°C 62.1°F16.7°C 44% Calm Calm 8.7 mph14.0 kmh 29.92 in1013.2 mb 0.00 in0.0 mm 0.00 in/hr0.0 mm/hr 0.00 in0.0 mm
04:52 PM 88.6°F31.4°C 62.5°F16.9°C 44% 1.8 mph ESE2.9 kmh ESE 12.3 mph19.8 kmh 29.91 in1012.9 mb 0.00 in0.0 mm 0.00 in/hr0.0 mm/hr 0.00 in0.0 mm
05:07 PM 88.6°F31.4°C 62.5°F16.9°C 44% Calm Calm 10.5 mph16.9 kmh 29.91 in1012.9 mb 0.00 in0.0 mm 0.00 in/hr0.0 mm/hr 0.00 in0.0 mm
05:22 PM 88.1°F31.2°C 62.7°F17.1°C 45% 5.1 mph E8.2 kmh E 10.5 mph16.9 kmh 29.92 in1013.2 mb 0.00 in0.0 mm 0.00 in/hr0.0 mm/hr 0.00 in0.0 mm
05:37 PM 87.5°F30.8°C 63.6°F17.6°C 47% Calm Calm 10.5 mph16.9 kmh 29.91 in1012.9 mb 0.00 in0.0 mm 0.00 in/hr0.0 mm/hr 0.00 in0.0 mm
05:52 PM 87.2°F30.7°C 63.9°F17.7°C 48% Calm Calm 12.3 mph19.8 kmh 29.92 in1013.2 mb 0.00 in0.0 mm 0.00 in/hr0.0 mm/hr 0.00 in0.0 mm
06:07 PM 86.6°F30.3°C 63.4°F17.4°C 48% 6.9 mph SE11.1 kmh SE 14.1 mph22.7 kmh 29.92 in1013.2 mb 0.00 in0.0 mm 0.00 in/hr0.0 mm/hr 0.00 in0.0 mm
06:22 PM 86.6°F30.3°C 63.4°F17.4°C 48% 1.8 mph E2.9 kmh E 8.7 mph14.0 kmh 29.92 in1013.2 mb 0.00 in0.0 mm 0.00 in/hr0.0 mm/hr 0.00 in0.0 mm
06:37 PM 86.1°F30.1°C 63.6°F17.6°C 49% 1.8 mph E2.9 kmh E 12.3 mph19.8 kmh 29.92 in1013.2 mb 0.00 in0.0 mm 0.00 in/hr0.0 mm/hr 0.00 in0.0 mm
06:52 PM 85.5°F29.7°C 64.4°F18.0°C 51% 1.8 mph ESE2.9 kmh ESE 12.3 mph19.8 kmh 29.91 in1012.9 mb 0.00 in0.0 mm 0.00 in/hr0.0 mm/hr 0.00 in0.0 mm
07:07 PM 84.3°F29.1°C 64.4°F18.0°C 53% 3.6 mph E5.8 kmh E 8.7 mph14.0 kmh 29.92 in1013.2 mb 0.00 in0.0 mm 0.00 in/hr0.0 mm/hr 0.00 in0.0 mm
07:22 PM 84.1°F28.9°C 65.4°F18.6°C 55% Calm Calm 5.1 mph8.2 kmh 29.92 in1013.2 mb 0.00 in0.0 mm 0.00 in/hr0.0 mm/hr 0.00 in0.0 mm
07:37 PM 82.3°F27.9°C 65.4°F18.6°C 58% Calm Calm 6.9 mph11.1 kmh 29.92 in1013.2 mb 0.00 in0.0 mm 0.00 in/hr0.0 mm/hr 0.00 in0.0 mm
07:52 PM 81.2°F27.3°C 65.4°F18.6°C 60% Calm Calm 3.6 mph5.8 kmh 29.92 in1013.2 mb 0.00 in0.0 mm 0.00 in/hr0.0 mm/hr 0.00 in0.0 mm
08:07 PM 80.5°F26.9°C 65.8°F18.8°C 62% Calm Calm 3.6 mph5.8 kmh 29.92 in1013.2 mb 0.00 in0.0 mm 0.00 in/hr0.0 mm/hr 0.00 in0.0 mm
08:22 PM 79.4°F26.3°C 66.7°F19.3°C 66% Calm Calm 1.8 mph2.9 kmh 29.93 in1013.5 mb 0.00 in0.0 mm 0.00 in/hr0.0 mm/hr 0.00 in0.0 mm
08:37 PM 78.7°F25.9°C 66.9°F19.4°C 68% Calm Calm 1.8 mph2.9 kmh 29.93 in1013.5 mb 0.00 in0.0 mm 0.00 in/hr0.0 mm/hr 0.00 in0.0 mm
08:52 PM 78.2°F25.7°C 67.3°F19.6°C 70% Calm Calm 1.8 mph2.9 kmh 29.93 in1013.5 mb 0.00 in0.0 mm 0.00 in/hr0.0 mm/hr 0.00 in0.0 mm
09:07 PM 77.6°F25.3°C 67.2°F19.6°C 71% Calm Calm 3.6 mph5.8 kmh 29.94 in1013.9 mb 0.00 in0.0 mm 0.00 in/hr0.0 mm/hr 0.00 in0.0 mm
09:22 PM 77.1°F25.1°C 67.5°F19.7°C 73% Calm Calm 3.6 mph5.8 kmh 29.94 in1013.9 mb 0.00 in0.0 mm 0.00 in/hr0.0 mm/hr 0.00 in0.0 mm
09:37 PM 76.5°F24.7°C 67.4°F19.7°C 74% Calm Calm 1.8 mph2.9 kmh 29.95 in1014.2 mb 0.00 in0.0 mm 0.00 in/hr0.0 mm/hr 0.00 in0.0 mm
09:52 PM 76.2°F24.6°C 67.5°F19.7°C 75% Calm Calm 1.8 mph2.9 kmh 29.95 in1014.2 mb 0.00 in0.0 mm 0.00 in/hr0.0 mm/hr 0.00 in0.0 mm
10:07 PM 75.5°F24.2°C 67.6°F19.8°C 77% Calm Calm 1.8 mph2.9 kmh 29.95 in1014.2 mb 0.00 in0.0 mm 0.00 in/hr0.0 mm/hr 0.00 in0.0 mm
10:22 PM 75.1°F23.9°C 67.6°F19.8°C 78% Calm Calm 1.8 mph2.9 kmh 29.95 in1014.2 mb 0.00 in0.0 mm 0.00 in/hr0.0 mm/hr 0.00 in0.0 mm
10:37 PM 74.7°F23.7°C 67.7°F19.8°C 79% Calm Calm 3.6 mph5.8 kmh 29.95 in1014.2 mb 0.00 in0.0 mm 0.00 in/hr0.0 mm/hr 0.00 in0.0 mm
10:52 PM 74.4°F23.6°C 67.3°F19.6°C 79% Calm Calm 3.6 mph5.8 kmh 29.95 in1014.2 mb 0.00 in0.0 mm 0.00 in/hr0.0 mm/hr 0.00 in0.0 mm
11:07 PM 74.2°F23.4°C 67.5°F19.7°C 80% Calm Calm 1.8 mph2.9 kmh 29.95 in1014.2 mb 0.00 in0.0 mm 0.00 in/hr0.0 mm/hr 0.00 in0.0 mm
11:22 PM 73.8°F23.2°C 67.2°F19.6°C 80% Calm Calm 1.8 mph2.9 kmh 29.95 in1014.2 mb 0.00 in0.0 mm 0.00 in/hr0.0 mm/hr 0.00 in0.0 mm
11:37 PM 73.7°F23.2°C 67.4°F19.7°C 81% Calm Calm 1.8 mph2.9 kmh 29.95 in1014.2 mb 0.00 in0.0 mm 0.00 in/hr0.0 mm/hr 0.00 in0.0 mm
11:52 PM 73.7°F23.2°C 67.4°F19.7°C 81% Calm Calm 1.8 mph2.9 kmh 29.95 in1014.2 mb 0.00 in0.0 mm 0.00 in/hr0.0 mm/hr 0.00 in0.0 mm